Decoded Metar for UWGG (NIZHNY NOVGOROD in RUSSIA) (IATA:N/A) | Meteo·Mobile Aviation Weather
aviador You're here:

UWGG Decoded Metar

NIZHNY NOVGOROD in RUSSIA
Report Time2019-02-19 13:00:00
UTC Time2019-02-19 13:32:30
Flight Rules vfr VFR
Wind240° at 8 kt
W.Decomp.*RWY 18: 5.2 kt HW 6.0 kt RCW
W.Rank240° ranks 11
Current wind is above 240° avg. (5.7)
Visibility9999 m
Phenomena:N/A
Clouds:N/A
Expected CloudBase > 3,600 ft AGL from Temp-Dew spread
CeilingNone
Temp-3°C (ISA -18)
Dew Point-12°C (50% RH)
AAT-9.1°C
QNH1009 hPa
Density Alt-1,742 ft
Elevation240 ft
Report Wrong Elevation
Raw Report
METAR UWGG 191300Z 24004MPS CAVOK M03/M12 Q1009 R18L/410160 NOSIG=

Extra information for UWGG:More info

Metar Taf Metar & Taf Last 4 Metars F.Rules Stats Wind Profile Meteogram Temp Stats Airport Information Weather charts Add Link Nearby VenuesMetar ALERT Operation Metar Decoded Social comments